sensor_id;sensor_type;location;lat;lon;timestamp;pressure;altitude;pressure_sealevel;temperature;humidity
23427;BME280;41148;45.420;10.952;2023-08-07T00:02:13;100094.06;;;19.77;66.58
23427;BME280;41148;45.420;10.952;2023-08-07T00:04:41;100090.88;;;19.71;66.76
23427;BME280;41148;45.420;10.952;2023-08-07T00:07:08;100095.13;;;19.63;66.97
23427;BME280;41148;45.420;10.952;2023-08-07T00:09:36;100098.81;;;19.62;67.34
23427;BME280;41148;45.420;10.952;2023-08-07T00:12:04;100098.81;;;19.62;67.93
23427;BME280;41148;45.420;10.952;2023-08-07T00:14:31;100104.66;;;19.56;67.70
23427;BME280;41148;45.420;10.952;2023-08-07T00:16:59;100112.84;;;19.54;68.20
23427;BME280;41148;45.420;10.952;2023-08-07T00:19:26;100106.91;;;19.49;68.87
23427;BME280;41148;45.420;10.952;2023-08-07T00:21:54;100121.88;;;19.42;69.20
23427;BME280;41148;45.420;10.952;2023-08-07T00:24:22;100118.00;;;19.33;70.27
23427;BME280;41148;45.420;10.952;2023-08-07T00:26:49;100137.22;;;19.29;70.29
23427;BME280;41148;45.420;10.952;2023-08-07T00:29:16;100135.13;;;19.21;70.59
23427;BME280;41148;45.420;10.952;2023-08-07T00:31:44;100128.19;;;19.17;70.46
23427;BME280;41148;45.420;10.952;2023-08-07T00:34:12;100133.06;;;19.12;71.05
23427;BME280;41148;45.420;10.952;2023-08-07T00:36:39;100130.03;;;19.16;70.53
23427;BME280;41148;45.420;10.952;2023-08-07T00:39:07;100131.19;;;19.25;70.45
23427;BME280;41148;45.420;10.952;2023-08-07T00:41:39;100121.88;;;19.29;69.76
23427;BME280;41148;45.420;10.952;2023-08-07T00:44:06;100128.69;;;19.35;69.30
23427;BME280;41148;45.420;10.952;2023-08-07T00:46:34;100130.41;;;19.36;69.25
23427;BME280;41148;45.420;10.952;2023-08-07T00:49:03;100125.88;;;19.36;69.46
23427;BME280;41148;45.420;10.952;2023-08-07T00:51:31;100122.84;;;19.41;69.21
23427;BME280;41148;45.420;10.952;2023-08-07T00:53:59;100119.91;;;19.44;69.13
23427;BME280;41148;45.420;10.952;2023-08-07T00:56:29;100123.28;;;19.35;70.11
23427;BME280;41148;45.420;10.952;2023-08-07T00:59:00;100118.13;;;19.32;70.32
23427;BME280;41148;45.420;10.952;2023-08-07T01:01:29;100109.91;;;19.33;70.02
23427;BME280;41148;45.420;10.952;2023-08-07T01:03:57;100093.41;;;19.25;70.32
23427;BME280;41148;45.420;10.952;2023-08-07T01:06:26;100097.56;;;19.29;70.26
23427;BME280;41148;45.420;10.952;2023-08-07T01:08:54;100109.59;;;19.25;70.68
23427;BME280;41148;45.420;10.952;2023-08-07T01:16:55;100112.25;;;19.38;69.86
23427;BME280;41148;45.420;10.952;2023-08-07T01:19:28;100115.50;;;19.43;69.77
23427;BME280;41148;45.420;10.952;2023-08-07T01:22:16;100113.03;;;19.40;70.16
23427;BME280;41148;45.420;10.952;2023-08-07T01:24:45;100118.00;;;19.33;70.52
23427;BME280;41148;45.420;10.952;2023-08-07T01:32:43;100116.53;;;19.16;71.43
23427;BME280;41148;45.420;10.952;2023-08-07T01:35:15;100112.41;;;19.24;71.05
23427;BME280;41148;45.420;10.952;2023-08-07T01:37:45;100111.56;;;19.23;70.72
23427;BME280;41148;45.420;10.952;2023-08-07T01:40:13;100108.63;;;19.26;70.66
23427;BME280;41148;45.420;10.952;2023-08-07T01:42:41;100115.53;;;19.17;70.59
23427;BME280;41148;45.420;10.952;2023-08-07T01:45:10;100104.88;;;19.16;70.93
23427;BME280;41148;45.420;10.952;2023-08-07T01:47:37;100114.59;;;19.06;71.06
23427;BME280;41148;45.420;10.952;2023-08-07T01:50:06;100116.44;;;19.05;71.62
23427;BME280;41148;45.420;10.952;2023-08-07T01:52:33;100114.97;;;19.01;71.96
23427;BME280;41148;45.420;10.952;2023-08-07T01:55:01;100115.03;;;19.00;72.15
23427;BME280;41148;45.420;10.952;2023-08-07T01:57:29;100121.66;;;18.96;72.63
23427;BME280;41148;45.420;10.952;2023-08-07T01:59:58;100124.88;;;18.88;72.70
23427;BME280;41148;45.420;10.952;2023-08-07T02:02:25;100135.16;;;18.83;72.56
23427;BME280;41148;45.420;10.952;2023-08-07T02:04:53;100140.16;;;18.62;73.78
23427;BME280;41148;45.420;10.952;2023-08-07T02:07:21;100136.97;;;18.70;73.45
23427;BME280;41148;45.420;10.952;2023-08-07T02:09:48;100129.75;;;18.70;73.97
23427;BME280;41148;45.420;10.952;2023-08-07T02:12:16;100148.97;;;18.66;74.38
23427;BME280;41148;45.420;10.952;2023-08-07T02:14:43;100148.84;;;18.67;74.82
23427;BME280;41148;45.420;10.952;2023-08-07T02:17:11;100145.69;;;18.60;75.77
23427;BME280;41148;45.420;10.952;2023-08-07T02:19:38;100158.31;;;18.60;75.75
23427;BME280;41148;45.420;10.952;2023-08-07T02:22:06;100151.19;;;18.59;76.38
23427;BME280;41148;45.420;10.952;2023-08-07T02:24:34;100146.25;;;18.53;76.53
23427;BME280;41148;45.420;10.952;2023-08-07T02:27:01;100138.56;;;18.47;76.92
23427;BME280;41148;45.420;10.952;2023-08-07T02:29:29;100133.47;;;18.42;77.63
23427;BME280;41148;45.420;10.952;2023-08-07T02:31:57;100134.56;;;18.40;77.96
23427;BME280;41148;45.420;10.952;2023-08-07T02:34:24;100143.09;;;18.46;77.84
23427;BME280;41148;45.420;10.952;2023-08-07T02:36:52;100139.31;;;18.49;77.38
23427;BME280;41148;45.420;10.952;2023-08-07T02:39:20;100139.00;;;18.53;76.83
23427;BME280;41148;45.420;10.952;2023-08-07T02:41:48;100137.16;;;18.54;77.02
23427;BME280;41148;45.420;10.952;2023-08-07T02:44:15;100128.53;;;18.49;77.00
23427;BME280;41148;45.420;10.952;2023-08-07T02:46:44;100132.94;;;18.50;77.07
23427;BME280;41148;45.420;10.952;2023-08-07T02:49:12;100136.50;;;18.50;76.56
23427;BME280;41148;45.420;10.952;2023-08-07T02:51:39;100137.25;;;18.52;76.77
23427;BME280;41148;45.420;10.952;2023-08-07T02:54:07;100133.28;;;18.45;77.02
23427;BME280;41148;45.420;10.952;2023-08-07T02:56:34;100135.19;;;18.30;78.02
23427;BME280;41148;45.420;10.952;2023-08-07T02:59:02;100133.88;;;18.23;78.04
23427;BME280;41148;45.420;10.952;2023-08-07T03:01:29;100134.75;;;18.24;78.43
23427;BME280;41148;45.420;10.952;2023-08-07T03:03:57;100126.56;;;18.38;77.38
23427;BME280;41148;45.420;10.952;2023-08-07T03:06:25;100122.25;;;18.36;77.33
23427;BME280;41148;45.420;10.952;2023-08-07T03:08:53;100116.41;;;18.42;77.16
23427;BME280;41148;45.420;10.952;2023-08-07T03:11:20;100121.75;;;18.43;77.09
23427;BME280;41148;45.420;10.952;2023-08-07T03:13:48;100126.25;;;18.43;76.39
23427;BME280;41148;45.420;10.952;2023-08-07T03:16:16;100130.13;;;18.51;75.67
23427;BME280;41148;45.420;10.952;2023-08-07T03:18:44;100120.94;;;18.41;72.77
23427;BME280;41148;45.420;10.952;2023-08-07T03:21:11;100132.81;;;18.39;72.21
23427;BME280;41148;45.420;10.952;2023-08-07T03:23:40;100123.88;;;18.38;71.37
23427;BME280;41148;45.420;10.952;2023-08-07T03:26:10;100130.34;;;18.36;70.96
23427;BME280;41148;45.420;10.952;2023-08-07T03:28:47;100126.56;;;18.38;71.62
23427;BME280;41148;45.420;10.952;2023-08-07T03:31:16;100133.81;;;18.50;71.57
23427;BME280;41148;45.420;10.952;2023-08-07T03:33:46;100132.41;;;18.45;71.76
23427;BME280;41148;45.420;10.952;2023-08-07T03:36:15;100129.38;;;18.37;72.25
23427;BME280;41148;45.420;10.952;2023-08-07T03:38:42;100134.34;;;18.43;71.16
23427;BME280;41148;45.420;10.952;2023-08-07T03:41:11;100137.91;;;18.43;72.09
23427;BME280;41148;45.420;10.952;2023-08-07T03:43:41;100140.16;;;18.37;72.55
23427;BME280;41148;45.420;10.952;2023-08-07T03:46:16;100134.44;;;18.28;72.73
23427;BME280;41148;45.420;10.952;2023-08-07T03:48:43;100149.84;;;18.26;72.70
23427;BME280;41148;45.420;10.952;2023-08-07T03:51:11;100159.56;;;18.29;71.90
23427;BME280;41148;45.420;10.952;2023-08-07T03:53:43;100161.84;;;18.35;69.71
23427;BME280;41148;45.420;10.952;2023-08-07T03:56:11;100159.09;;;18.10;71.11
23427;BME280;41148;45.420;10.952;2023-08-07T03:58:38;100153.59;;;18.11;71.35
23427;BME280;41148;45.420;10.952;2023-08-07T04:01:06;100157.59;;;18.18;72.40
23427;BME280;41148;45.420;10.952;2023-08-07T04:03:34;100150.88;;;18.11;73.21
23427;BME280;41148;45.420;10.952;2023-08-07T04:06:03;100153.94;;;18.19;74.22
23427;BME280;41148;45.420;10.952;2023-08-07T04:08:33;100160.81;;;18.11;73.90
23427;BME280;41148;45.420;10.952;2023-08-07T04:11:01;100164.69;;;18.07;74.08
23427;BME280;41148;45.420;10.952;2023-08-07T04:13:30;100162.84;;;18.07;74.53
23427;BME280;41148;45.420;10.952;2023-08-07T04:15:58;100159.25;;;17.94;75.28
23427;BME280;41148;45.420;10.952;2023-08-07T04:18:29;100164.63;;;17.94;75.38
23427;BME280;41148;45.420;10.952;2023-08-07T04:20:57;100164.72;;;17.92;75.05
23427;BME280;41148;45.420;10.952;2023-08-07T04:23:25;100170.69;;;17.97;75.76
23427;BME280;41148;45.420;10.952;2023-08-07T04:25:53;100173.28;;;17.99;77.58
23427;BME280;41148;45.420;10.952;2023-08-07T04:28:21;100164.56;;;17.95;77.85
23427;BME280;41148;45.420;10.952;2023-08-07T04:30:49;100169.88;;;17.83;79.20
23427;BME280;41148;45.420;10.952;2023-08-07T04:33:21;100169.00;;;17.82;79.67
23427;BME280;41148;45.420;10.952;2023-08-07T04:35:48;100171.69;;;17.82;79.97
23427;BME280;41148;45.420;10.952;2023-08-07T04:38:16;100171.16;;;17.77;80.22
23427;BME280;41148;45.420;10.952;2023-08-07T04:40:48;100171.91;;;17.79;80.43
23427;BME280;41148;45.420;10.952;2023-08-07T04:43:17;100166.78;;;17.89;80.59
23427;BME280;41148;45.420;10.952;2023-08-07T04:45:45;100174.28;;;17.84;81.22
23427;BME280;41148;45.420;10.952;2023-08-07T04:48:13;100172.66;;;17.81;81.08
23427;BME280;41148;45.420;10.952;2023-08-07T04:50:41;100172.03;;;17.78;81.36
23427;BME280;41148;45.420;10.952;2023-08-07T04:53:09;100180.66;;;17.83;81.20
23427;BME280;41148;45.420;10.952;2023-08-07T04:55:36;100178.44;;;17.75;81.35
23427;BME280;41148;45.420;10.952;2023-08-07T04:58:04;100184.31;;;17.82;81.20
23427;BME280;41148;45.420;10.952;2023-08-07T05:00:31;100190.56;;;17.82;80.57
23427;BME280;41148;45.420;10.952;2023-08-07T05:02:59;100192.25;;;17.97;80.08
23427;BME280;41148;45.420;10.952;2023-08-07T05:05:27;100190.69;;;18.08;79.84
23427;BME280;41148;45.420;10.952;2023-08-07T05:07:55;100186.91;;;18.10;80.12
23427;BME280;41148;45.420;10.952;2023-08-07T05:10:22;100197.91;;;18.07;79.59
23427;BME280;41148;45.420;10.952;2023-08-07T05:12:50;100193.06;;;18.12;78.83
23427;BME280;41148;45.420;10.952;2023-08-07T05:15:41;100197.28;;;18.16;75.92
23427;BME280;41148;45.420;10.952;2023-08-07T05:18:09;100195.38;;;18.31;74.26
23427;BME280;41148;45.420;10.952;2023-08-07T05:20:37;100201.44;;;18.35;70.35
23427;BME280;41148;45.420;10.952;2023-08-07T05:23:04;100209.41;;;18.36;67.07
23427;BME280;41148;45.420;10.952;2023-08-07T05:25:32;100209.34;;;18.50;67.89
23427;BME280;41148;45.420;10.952;2023-08-07T05:27:59;100199.72;;;18.46;69.21
23427;BME280;41148;45.420;10.952;2023-08-07T05:30:27;100211.38;;;18.34;70.06
23427;BME280;41148;45.420;10.952;2023-08-07T05:32:54;100205.09;;;18.34;70.14
23427;BME280;41148;45.420;10.952;2023-08-07T05:35:22;100210.91;;;18.27;71.95
23427;BME280;41148;45.420;10.952;2023-08-07T05:37:49;100210.28;;;18.37;71.83
23427;BME280;41148;45.420;10.952;2023-08-07T05:40:17;100212.22;;;18.35;72.99
23427;BME280;41148;45.420;10.952;2023-08-07T05:42:45;100214.38;;;18.42;72.78
23427;BME280;41148;45.420;10.952;2023-08-07T05:45:12;100218.63;;;18.46;72.61
23427;BME280;41148;45.420;10.952;2023-08-07T05:47:40;100219.69;;;18.44;73.00
23427;BME280;41148;45.420;10.952;2023-08-07T05:50:08;100219.88;;;18.68;72.77
23427;BME280;41148;45.420;10.952;2023-08-07T05:52:36;100225.63;;;19.01;71.85
23427;BME280;41148;45.420;10.952;2023-08-07T05:55:04;100226.06;;;19.21;71.36
23427;BME280;41148;45.420;10.952;2023-08-07T05:57:34;100224.84;;;19.25;70.59
23427;BME280;41148;45.420;10.952;2023-08-07T06:00:02;100222.28;;;19.23;71.52
23427;BME280;41148;45.420;10.952;2023-08-07T06:02:39;100227.34;;;19.28;67.81
23427;BME280;41148;45.420;10.952;2023-08-07T06:05:06;100237.16;;;19.29;67.66
23427;BME280;41148;45.420;10.952;2023-08-07T06:07:35;100243.78;;;19.12;67.79
23427;BME280;41148;45.420;10.952;2023-08-07T06:10:02;100242.25;;;19.21;68.05
23427;BME280;41148;45.420;10.952;2023-08-07T06:12:30;100228.19;;;19.28;69.04
23427;BME280;41148;45.420;10.952;2023-08-07T06:14:57;100231.31;;;19.35;70.95
23427;BME280;41148;45.420;10.952;2023-08-07T06:17:25;100231.88;;;19.40;71.48
23427;BME280;41148;45.420;10.952;2023-08-07T06:19:52;100231.97;;;19.51;70.64
23427;BME280;41148;45.420;10.952;2023-08-07T06:22:20;100233.47;;;19.55;69.87
23427;BME280;41148;45.420;10.952;2023-08-07T06:24:47;100241.91;;;19.51;67.97
23427;BME280;41148;45.420;10.952;2023-08-07T06:27:16;100241.06;;;19.50;68.74
23427;BME280;41148;45.420;10.952;2023-08-07T06:29:43;100248.09;;;19.40;67.84
23427;BME280;41148;45.420;10.952;2023-08-07T06:32:11;100238.38;;;19.25;69.01
23427;BME280;41148;45.420;10.952;2023-08-07T06:34:38;100240.19;;;19.24;67.17
23427;BME280;41148;45.420;10.952;2023-08-07T06:37:06;100241.59;;;19.17;66.71
23427;BME280;41148;45.420;10.952;2023-08-07T06:39:33;100254.44;;;19.26;68.23
23427;BME280;41148;45.420;10.952;2023-08-07T06:42:01;100250.78;;;19.40;67.85
23427;BME280;41148;45.420;10.952;2023-08-07T06:44:34;100255.09;;;19.42;67.81
23427;BME280;41148;45.420;10.952;2023-08-07T06:47:01;100252.59;;;19.39;64.56
23427;BME280;41148;45.420;10.952;2023-08-07T06:49:29;100251.31;;;19.70;62.70
23427;BME280;41148;45.420;10.952;2023-08-07T06:51:59;100250.75;;;19.65;68.22
23427;BME280;41148;45.420;10.952;2023-08-07T06:54:26;100262.38;;;19.91;68.14
23427;BME280;41148;45.420;10.952;2023-08-07T06:56:54;100257.59;;;19.95;66.85
23427;BME280;41148;45.420;10.952;2023-08-07T06:59:21;100257.59;;;20.08;66.38
23427;BME280;41148;45.420;10.952;2023-08-07T07:01:49;100262.34;;;20.04;67.18
23427;BME280;41148;45.420;10.952;2023-08-07T07:04:16;100266.56;;;20.08;66.81
23427;BME280;41148;45.420;10.952;2023-08-07T07:06:46;100258.72;;;20.16;67.02
23427;BME280;41148;45.420;10.952;2023-08-07T07:09:14;100250.28;;;20.21;66.72
23427;BME280;41148;45.420;10.952;2023-08-07T07:11:43;100260.97;;;20.22;65.81
23427;BME280;41148;45.420;10.952;2023-08-07T07:14:11;100260.69;;;20.38;64.58
23427;BME280;41148;45.420;10.952;2023-08-07T07:16:39;100266.50;;;20.45;60.98
23427;BME280;41148;45.420;10.952;2023-08-07T07:19:06;100270.28;;;20.42;60.78
23427;BME280;41148;45.420;10.952;2023-08-07T07:21:36;100280.63;;;20.37;60.77
23427;BME280;41148;45.420;10.952;2023-08-07T07:24:04;100267.91;;;20.50;60.88
23427;BME280;41148;45.420;10.952;2023-08-07T07:26:31;100264.84;;;20.55;59.56
23427;BME280;41148;45.420;10.952;2023-08-07T07:28:59;100272.06;;;20.78;58.63
23427;BME280;41148;45.420;10.952;2023-08-07T07:31:27;100272.25;;;20.99;56.31
23427;BME280;41148;45.420;10.952;2023-08-07T07:33:54;100257.63;;;21.13;51.83
23427;BME280;41148;45.420;10.952;2023-08-07T07:36:22;100269.75;;;21.31;52.08
23427;BME280;41148;45.420;10.952;2023-08-07T07:38:49;100275.06;;;21.66;51.02
23427;BME280;41148;45.420;10.952;2023-08-07T07:41:17;100278.78;;;21.65;48.82
23427;BME280;41148;45.420;10.952;2023-08-07T07:43:46;100284.06;;;21.67;48.59
23427;BME280;41148;45.420;10.952;2023-08-07T07:46:14;100291.34;;;21.55;47.50
23427;BME280;41148;45.420;10.952;2023-08-07T07:48:41;100285.53;;;21.37;47.60
23427;BME280;41148;45.420;10.952;2023-08-07T07:51:10;100286.38;;;21.27;48.44
23427;BME280;41148;45.420;10.952;2023-08-07T07:53:37;100297.09;;;21.28;48.64
23427;BME280;41148;45.420;10.952;2023-08-07T07:56:05;100294.59;;;21.14;47.33
23427;BME280;41148;45.420;10.952;2023-08-07T07:58:32;100300.00;;;21.14;46.68
23427;BME280;41148;45.420;10.952;2023-08-07T08:01:00;100304.34;;;20.93;47.41
23427;BME280;41148;45.420;10.952;2023-08-07T08:03:27;100300.50;;;20.84;46.73
23427;BME280;41148;45.420;10.952;2023-08-07T08:05:56;100299.28;;;20.77;47.12
23427;BME280;41148;45.420;10.952;2023-08-07T08:08:23;100289.03;;;20.69;46.30
23427;BME280;41148;45.420;10.952;2023-08-07T08:10:54;100298.34;;;20.65;46.28
23427;BME280;41148;45.420;10.952;2023-08-07T08:13:22;100296.16;;;20.70;45.10
23427;BME280;41148;45.420;10.952;2023-08-07T08:15:50;100298.44;;;20.88;45.78
23427;BME280;41148;45.420;10.952;2023-08-07T08:18:17;100295.38;;;21.03;44.54
23427;BME280;41148;45.420;10.952;2023-08-07T08:20:45;100305.03;;;21.19;44.23
23427;BME280;41148;45.420;10.952;2023-08-07T08:23:12;100294.38;;;21.28;43.82
23427;BME280;41148;45.420;10.952;2023-08-07T08:25:39;100296.38;;;21.71;43.41
23427;BME280;41148;45.420;10.952;2023-08-07T08:28:07;100295.50;;;22.04;43.25
23427;BME280;41148;45.420;10.952;2023-08-07T08:30:35;100299.53;;;22.32;41.36
23427;BME280;41148;45.420;10.952;2023-08-07T08:33:02;100303.25;;;22.63;38.70
23427;BME280;41148;45.420;10.952;2023-08-07T08:35:32;100311.06;;;24.12;34.87
23427;BME280;41148;45.420;10.952;2023-08-07T08:38:00;100312.00;;;23.92;32.54
23427;BME280;41148;45.420;10.952;2023-08-07T08:40:28;100303.38;;;24.17;31.39
23427;BME280;41148;45.420;10.952;2023-08-07T08:42:55;100306.84;;;25.92;29.16
23427;BME280;41148;45.420;10.952;2023-08-07T08:45:26;100312.91;;;26.86;28.28
23427;BME280;41148;45.420;10.952;2023-08-07T08:48:01;100312.69;;;27.41;28.38
23427;BME280;41148;45.420;10.952;2023-08-07T08:50:29;100313.63;;;28.10;28.13
23427;BME280;41148;45.420;10.952;2023-08-07T08:52:56;100311.72;;;28.52;26.07
23427;BME280;41148;45.420;10.952;2023-08-07T08:55:25;100319.69;;;27.95;26.20
23427;BME280;41148;45.420;10.952;2023-08-07T08:57:54;100310.28;;;28.32;25.62
23427;BME280;41148;45.420;10.952;2023-08-07T09:00:23;100307.44;;;29.80;24.79
23427;BME280;41148;45.420;10.952;2023-08-07T09:02:53;100305.69;;;29.87;23.90
23427;BME280;41148;45.420;10.952;2023-08-07T09:05:21;100312.66;;;29.02;25.37
23427;BME280;41148;45.420;10.952;2023-08-07T09:07:49;100308.66;;;29.70;24.35
23427;BME280;41148;45.420;10.952;2023-08-07T09:10:16;100319.16;;;31.06;23.41
23427;BME280;41148;45.420;10.952;2023-08-07T09:12:57;100316.31;;;32.05;21.75
23427;BME280;41148;45.420;10.952;2023-08-07T09:15:29;100309.75;;;33.64;20.25
23427;BME280;41148;45.420;10.952;2023-08-07T09:17:58;100309.84;;;34.53;19.32
23427;BME280;41148;45.420;10.952;2023-08-07T09:20:26;100311.44;;;34.34;19.96
23427;BME280;41148;45.420;10.952;2023-08-07T09:22:55;100308.75;;;33.43;21.32
23427;BME280;41148;45.420;10.952;2023-08-07T09:25:29;100313.28;;;33.29;21.36
23427;BME280;41148;45.420;10.952;2023-08-07T09:27:57;100308.03;;;33.35;21.08
23427;BME280;41148;45.420;10.952;2023-08-07T09:30:29;100312.94;;;33.61;21.55
23427;BME280;41148;45.420;10.952;2023-08-07T09:32:59;100310.13;;;34.23;20.57
23427;BME280;41148;45.420;10.952;2023-08-07T09:35:28;100311.22;;;33.88;19.88
23427;BME280;41148;45.420;10.952;2023-08-07T09:37:59;100320.91;;;34.11;20.65
23427;BME280;41148;45.420;10.952;2023-08-07T09:40:27;100320.31;;;34.70;20.11
23427;BME280;41148;45.420;10.952;2023-08-07T09:42:54;100320.59;;;33.65;20.52
23427;BME280;41148;45.420;10.952;2023-08-07T09:45:24;100336.63;;;32.18;21.71
23427;BME280;41148;45.420;10.952;2023-08-07T09:48:03;100332.91;;;30.22;23.98
23427;BME280;41148;45.420;10.952;2023-08-07T09:50:32;100326.38;;;29.26;25.48
23427;BME280;41148;45.420;10.952;2023-08-07T09:52:59;100326.81;;;27.80;26.99
23427;BME280;41148;45.420;10.952;2023-08-07T09:55:27;100325.22;;;27.26;29.33
23427;BME280;41148;45.420;10.952;2023-08-07T09:57:55;100329.13;;;26.70;30.85
23427;BME280;41148;45.420;10.952;2023-08-07T10:00:22;100316.53;;;26.41;30.24
23427;BME280;41148;45.420;10.952;2023-08-07T10:02:50;100327.47;;;26.59;29.24
23427;BME280;41148;45.420;10.952;2023-08-07T10:05:18;100335.59;;;26.51;26.84
23427;BME280;41148;45.420;10.952;2023-08-07T10:07:47;100320.25;;;25.85;29.69
23427;BME280;41148;45.420;10.952;2023-08-07T10:10:15;100323.47;;;26.08;27.94
23427;BME280;41148;45.420;10.952;2023-08-07T10:12:43;100317.84;;;26.10;28.26
23427;BME280;41148;45.420;10.952;2023-08-07T10:15:15;100327.47;;;26.04;29.77
23427;BME280;41148;45.420;10.952;2023-08-07T10:17:46;100324.84;;;26.12;30.62
23427;BME280;41148;45.420;10.952;2023-08-07T10:20:14;100318.03;;;26.26;31.26
23427;BME280;41148;45.420;10.952;2023-08-07T10:22:44;100319.19;;;26.23;30.81
23427;BME280;41148;45.420;10.952;2023-08-07T10:25:12;100318.22;;;26.15;30.73
23427;BME280;41148;45.420;10.952;2023-08-07T10:27:41;100318.97;;;26.17;30.48
23427;BME280;41148;45.420;10.952;2023-08-07T10:30:11;100325.09;;;25.91;30.05
23427;BME280;41148;45.420;10.952;2023-08-07T10:32:42;100314.56;;;26.06;29.01
23427;BME280;41148;45.420;10.952;2023-08-07T10:35:24;100313.44;;;25.99;29.43
23427;BME280;41148;45.420;10.952;2023-08-07T10:37:52;100321.91;;;26.06;30.20
23427;BME280;41148;45.420;10.952;2023-08-07T10:40:23;100314.41;;;26.08;29.25
23427;BME280;41148;45.420;10.952;2023-08-07T10:43:01;100312.78;;;25.87;27.90
23427;BME280;41148;45.420;10.952;2023-08-07T10:45:40;100321.06;;;25.95;28.44
23427;BME280;41148;45.420;10.952;2023-08-07T10:48:10;100321.28;;;26.12;25.32
23427;BME280;41148;45.420;10.952;2023-08-07T10:50:51;100321.84;;;26.43;24.65
23427;BME280;41148;45.420;10.952;2023-08-07T10:56:07;100324.69;;;26.14;27.14
23427;BME280;41148;45.420;10.952;2023-08-07T10:58:37;100322.50;;;26.27;26.68
23427;BME280;41148;45.420;10.952;2023-08-07T11:04:13;100312.09;;;26.40;27.91
23427;BME280;41148;45.420;10.952;2023-08-07T11:06:42;100321.75;;;26.35;28.03
23427;BME280;41148;45.420;10.952;2023-08-07T11:09:10;100316.56;;;26.32;26.76
23427;BME280;41148;45.420;10.952;2023-08-07T11:11:40;100309.75;;;26.18;27.49
23427;BME280;41148;45.420;10.952;2023-08-07T11:14:10;100303.97;;;26.21;25.20
23427;BME280;41148;45.420;10.952;2023-08-07T11:16:38;100301.78;;;26.24;25.67
23427;BME280;41148;45.420;10.952;2023-08-07T11:19:06;100309.84;;;26.26;26.33
23427;BME280;41148;45.420;10.952;2023-08-07T11:21:34;100301.56;;;26.18;26.73
23427;BME280;41148;45.420;10.952;2023-08-07T11:24:02;100308.13;;;26.25;26.75
23427;BME280;41148;45.420;10.952;2023-08-07T11:26:30;100300.94;;;26.24;24.93
23427;BME280;41148;45.420;10.952;2023-08-07T11:28:57;100312.28;;;26.29;25.61
23427;BME280;41148;45.420;10.952;2023-08-07T11:31:25;100298.88;;;26.36;26.08
23427;BME280;41148;45.420;10.952;2023-08-07T11:33:57;100299.94;;;26.25;25.48
23427;BME280;41148;45.420;10.952;2023-08-07T11:36:25;100298.47;;;26.31;26.19
23427;BME280;41148;45.420;10.952;2023-08-07T11:38:53;100290.09;;;26.32;26.12
23427;BME280;41148;45.420;10.952;2023-08-07T11:41:20;100295.56;;;26.32;25.82
23427;BME280;41148;45.420;10.952;2023-08-07T11:43:48;100295.78;;;26.48;24.97
23427;BME280;41148;45.420;10.952;2023-08-07T11:46:15;100294.59;;;26.51;24.30
23427;BME280;41148;45.420;10.952;2023-08-07T11:48:44;100296.47;;;26.50;25.77
23427;BME280;41148;45.420;10.952;2023-08-07T11:51:12;100294.16;;;26.56;24.21
23427;BME280;41148;45.420;10.952;2023-08-07T11:53:41;100298.53;;;26.48;26.05
23427;BME280;41148;45.420;10.952;2023-08-07T11:56:11;100304.22;;;26.55;25.85
23427;BME280;41148;45.420;10.952;2023-08-07T11:58:46;100303.84;;;26.68;24.43
23427;BME280;41148;45.420;10.952;2023-08-07T12:01:16;100296.16;;;26.53;24.47
23427;BME280;41148;45.420;10.952;2023-08-07T12:03:54;100301.34;;;26.57;24.34
23427;BME280;41148;45.420;10.952;2023-08-07T12:06:26;100300.47;;;26.56;23.80
23427;BME280;41148;45.420;10.952;2023-08-07T12:08:55;100304.34;;;26.53;23.81
23427;BME280;41148;45.420;10.952;2023-08-07T12:11:24;100312.03;;;26.68;23.44
23427;BME280;41148;45.420;10.952;2023-08-07T12:13:52;100319.22;;;26.69;22.66
23427;BME280;41148;45.420;10.952;2023-08-07T12:16:20;100310.56;;;26.73;20.79
23427;BME280;41148;45.420;10.952;2023-08-07T12:18:51;100317.81;;;26.65;22.14
23427;BME280;41148;45.420;10.952;2023-08-07T12:21:23;100314.84;;;26.58;23.43
23427;BME280;41148;45.420;10.952;2023-08-07T12:23:55;100317.66;;;26.66;23.27
23427;BME280;41148;45.420;10.952;2023-08-07T12:26:23;100307.25;;;26.52;22.51
23427;BME280;41148;45.420;10.952;2023-08-07T12:28:52;100308.91;;;26.63;22.96
23427;BME280;41148;45.420;10.952;2023-08-07T12:31:20;100315.38;;;26.62;23.42
23427;BME280;41148;45.420;10.952;2023-08-07T12:33:48;100305.31;;;26.62;22.92
23427;BME280;41148;45.420;10.952;2023-08-07T12:36:16;100307.44;;;26.68;23.40
23427;BME280;41148;45.420;10.952;2023-08-07T12:38:47;100309.69;;;26.55;21.25
23427;BME280;41148;45.420;10.952;2023-08-07T12:41:15;100305.31;;;26.62;22.82
23427;BME280;41148;45.420;10.952;2023-08-07T12:43:45;100295.41;;;26.61;22.83
23427;BME280;41148;45.420;10.952;2023-08-07T12:46:14;100302.09;;;26.49;22.13
23427;BME280;41148;45.420;10.952;2023-08-07T12:48:45;100303.66;;;26.51;23.37
23427;BME280;41148;45.420;10.952;2023-08-07T12:51:12;100296.97;;;26.64;23.75
23427;BME280;41148;45.420;10.952;2023-08-07T12:53:40;100290.25;;;26.58;23.99
23427;BME280;41148;45.420;10.952;2023-08-07T12:56:07;100292.28;;;26.56;23.44
23427;BME280;41148;45.420;10.952;2023-08-07T12:58:35;100292.50;;;26.63;25.33
23427;BME280;41148;45.420;10.952;2023-08-07T13:01:04;100296.75;;;26.75;25.43
23427;BME280;41148;45.420;10.952;2023-08-07T13:03:31;100295.16;;;26.72;24.28
23427;BME280;41148;45.420;10.952;2023-08-07T13:05:59;100301.88;;;26.60;25.58